createdAt,value
2022-08-25T00:00:27.642Z,1011.35
2022-08-25T00:01:28.392Z,1011.38
2022-08-25T00:02:27.625Z,1011.34
2022-08-25T00:03:27.590Z,1011.36
2022-08-25T00:04:28.583Z,1011.34
2022-08-25T00:05:28.517Z,1011.32
2022-08-25T00:06:27.570Z,1011.35
2022-08-25T00:07:27.578Z,1011.36
2022-08-25T00:08:27.531Z,1011.34
2022-08-25T00:09:27.523Z,1011.32
2022-08-25T00:10:27.513Z,1011.31
2022-08-25T00:11:27.530Z,1011.38
2022-08-25T00:12:27.482Z,1011.34
2022-08-25T00:13:27.483Z,1011.33
2022-08-25T00:14:27.462Z,1011.37
2022-08-25T00:15:27.513Z,1011.37
2022-08-25T00:16:27.442Z,1011.35
2022-08-25T00:17:27.455Z,1011.35
2022-08-25T00:18:27.413Z,1011.38
2022-08-25T00:19:27.424Z,1011.38
2022-08-25T00:20:27.394Z,1011.40
2022-08-25T00:21:27.394Z,1011.39
2022-08-25T00:22:27.396Z,1011.38
2022-08-25T00:23:27.364Z,1011.43
2022-08-25T00:24:27.358Z,1011.40
2022-08-25T00:25:27.344Z,1011.39
2022-08-25T00:26:27.355Z,1011.43
2022-08-25T00:27:27.323Z,1011.35
2022-08-25T00:28:27.337Z,1011.39
2022-08-25T00:29:27.310Z,1011.42
2022-08-25T00:30:27.286Z,1011.41
2022-08-25T00:31:37.555Z,1011.44
2022-08-25T00:32:28.258Z,1011.43
2022-08-25T00:33:27.289Z,1011.46
2022-08-25T00:34:27.247Z,1011.44
2022-08-25T00:35:27.255Z,1011.39
2022-08-25T00:36:27.226Z,1011.44
2022-08-25T00:37:27.248Z,1011.44
2022-08-25T00:38:27.198Z,1011.45
2022-08-25T00:39:27.189Z,1011.41
2022-08-25T00:40:27.243Z,1011.42
2022-08-25T00:41:27.169Z,1011.44
2022-08-25T00:42:27.150Z,1011.45
2022-08-25T00:43:27.170Z,1011.49
2022-08-25T00:44:27.899Z,1011.45
2022-08-25T00:45:27.125Z,1011.47
2022-08-25T00:46:27.148Z,1011.48
2022-08-25T00:47:27.101Z,1011.48
2022-08-25T00:48:27.114Z,1011.49
2022-08-25T00:49:27.080Z,1011.46
2022-08-25T00:50:27.063Z,1011.51
2022-08-25T00:51:27.061Z,1011.48
2022-08-25T00:52:27.050Z,1011.46
2022-08-25T00:53:27.065Z,1011.49
2022-08-25T00:54:27.021Z,1011.49
2022-08-25T00:55:27.012Z,1011.53
2022-08-25T00:56:27.004Z,1011.48
2022-08-25T00:57:34.808Z,1011.48
2022-08-25T00:58:28.001Z,1011.47
2022-08-25T00:59:26.975Z,1011.47
2022-08-25T01:00:26.953Z,1011.47
2022-08-25T01:01:27.031Z,1011.49
2022-08-25T01:02:26.986Z,1011.48
2022-08-25T01:03:33.185Z,1011.50
2022-08-25T01:04:27.956Z,1011.45
2022-08-25T01:05:26.896Z,1011.45
2022-08-25T01:06:26.997Z,1011.51
2022-08-25T01:07:26.877Z,1011.46
2022-08-25T01:08:26.865Z,1011.43
2022-08-25T01:09:26.857Z,1011.41
2022-08-25T01:10:26.866Z,1011.39
2022-08-25T01:11:26.844Z,1011.45
2022-08-25T01:12:26.824Z,1011.43
2022-08-25T01:13:26.816Z,1011.42
2022-08-25T01:14:26.817Z,1011.40
2022-08-25T01:15:26.852Z,1011.42
2022-08-25T01:16:26.779Z,1011.42
2022-08-25T01:17:26.768Z,1011.43
2022-08-25T01:18:26.760Z,1011.39
2022-08-25T01:19:26.769Z,1011.43
2022-08-25T01:20:29.405Z,1011.37
2022-08-25T01:21:26.731Z,1011.39
2022-08-25T01:22:26.750Z,1011.37
2022-08-25T01:23:26.700Z,1011.40
2022-08-25T01:24:26.710Z,1011.37
2022-08-25T01:25:26.715Z,1011.35
2022-08-25T01:26:30.586Z,1011.33
2022-08-25T01:27:26.678Z,1011.33
2022-08-25T01:28:26.651Z,1011.31
2022-08-25T01:29:27.600Z,1011.29
2022-08-25T01:30:26.632Z,1011.34
2022-08-25T01:31:26.696Z,1011.32
2022-08-25T01:32:26.638Z,1011.31
2022-08-25T01:33:27.418Z,1011.33
2022-08-25T01:34:26.582Z,1011.34
2022-08-25T01:35:26.571Z,1011.37
2022-08-25T01:36:26.554Z,1011.36
2022-08-25T01:37:26.572Z,1011.37
2022-08-25T01:38:26.532Z,1011.35
2022-08-25T01:39:27.346Z,1011.35
2022-08-25T01:40:26.614Z,1011.38
2022-08-25T01:41:26.504Z,1011.40
2022-08-25T01:42:26.601Z,1011.38
2022-08-25T01:43:26.483Z,1011.37
2022-08-25T01:44:26.471Z,1011.41
2022-08-25T01:45:26.463Z,1011.40
2022-08-25T01:46:27.266Z,1011.37
2022-08-25T01:47:26.464Z,1011.36
2022-08-25T01:48:26.424Z,1011.38
2022-08-25T01:49:26.417Z,1011.36
2022-08-25T01:50:26.404Z,1011.37
2022-08-25T01:51:26.401Z,1011.36
2022-08-25T01:52:26.446Z,1011.35
2022-08-25T01:53:26.374Z,1011.36
2022-08-25T01:54:26.364Z,1011.34
2022-08-25T01:55:26.388Z,1011.34
2022-08-25T01:56:26.338Z,1011.30
2022-08-25T01:57:26.329Z,1011.33
2022-08-25T01:58:26.308Z,1011.31
2022-08-25T01:59:26.305Z,1011.32
2022-08-25T02:00:26.287Z,1011.32
2022-08-25T02:01:27.151Z,1011.28
2022-08-25T02:02:26.408Z,1011.29
2022-08-25T02:03:26.267Z,1011.27
2022-08-25T02:04:26.247Z,1011.27
2022-08-25T02:05:26.240Z,1011.27
2022-08-25T02:06:30.075Z,1011.28
2022-08-25T02:07:26.218Z,1011.35
2022-08-25T02:08:26.198Z,1011.33
2022-08-25T02:09:26.210Z,1011.32
2022-08-25T02:10:26.181Z,1011.34
2022-08-25T02:11:26.197Z,1011.31
2022-08-25T02:12:26.161Z,1011.34
2022-08-25T02:13:26.803Z,1011.30
2022-08-25T02:14:27.131Z,1011.29
2022-08-25T02:15:26.130Z,1011.29
2022-08-25T02:16:26.184Z,1011.26
2022-08-25T02:17:26.109Z,1011.21
2022-08-25T02:18:26.091Z,1011.19
2022-08-25T02:19:26.096Z,1011.22
2022-08-25T02:20:26.071Z,1011.20
2022-08-25T02:21:26.113Z,1011.20
2022-08-25T02:22:26.081Z,1011.16
2022-08-25T02:23:26.053Z,1011.15
2022-08-25T02:24:26.044Z,1011.16
2022-08-25T02:25:26.020Z,1011.18
2022-08-25T02:26:26.003Z,1011.19
2022-08-25T02:27:26.081Z,1011.15
2022-08-25T02:28:26.169Z,1011.14
2022-08-25T02:29:25.994Z,1011.11
2022-08-25T02:30:26.000Z,1011.17
2022-08-25T02:31:25.954Z,1011.21
2022-08-25T02:32:25.944Z,1011.20
2022-08-25T02:33:25.935Z,1011.22
2022-08-25T02:34:25.947Z,1011.24
2022-08-25T02:35:25.905Z,1011.23
2022-08-25T02:36:25.894Z,1011.22
2022-08-25T02:37:25.891Z,1011.24
2022-08-25T02:38:26.686Z,1011.27
2022-08-25T02:39:25.859Z,1011.26
2022-08-25T02:40:25.947Z,1011.29
2022-08-25T02:41:30.993Z,1011.26
2022-08-25T02:42:26.839Z,1011.28
2022-08-25T02:43:26.777Z,1011.27
2022-08-25T02:44:25.824Z,1011.25
2022-08-25T02:45:25.796Z,1011.24
2022-08-25T02:46:25.835Z,1011.23
2022-08-25T02:47:27.238Z,1011.23
2022-08-25T02:48:25.758Z,1011.21
2022-08-25T02:49:25.786Z,1011.19
2022-08-25T02:50:25.738Z,1011.18
2022-08-25T02:51:25.735Z,1011.17
2022-08-25T02:52:25.729Z,1011.14
2022-08-25T02:53:25.719Z,1011.13
2022-08-25T02:54:25.699Z,1011.17
2022-08-25T02:55:25.707Z,1011.12
2022-08-25T02:56:25.680Z,1011.21
2022-08-25T02:57:25.741Z,1011.17
2022-08-25T02:58:25.650Z,1011.20
2022-08-25T02:59:25.642Z,1011.18
2022-08-25T03:00:25.642Z,1011.22
2022-08-25T03:01:28.831Z,1011.22
2022-08-25T03:02:25.611Z,1011.18
2022-08-25T03:03:25.611Z,1011.18
2022-08-25T03:04:33.391Z,1011.24
2022-08-25T03:05:25.587Z,1011.26
2022-08-25T03:06:25.588Z,1011.26
2022-08-25T03:07:25.558Z,1011.28
2022-08-25T03:08:25.537Z,1011.25
2022-08-25T03:09:25.526Z,1011.32
2022-08-25T03:10:25.523Z,1011.30
2022-08-25T03:11:25.526Z,1011.32
2022-08-25T03:12:25.506Z,1011.28
2022-08-25T03:13:25.481Z,1011.26
2022-08-25T03:14:25.476Z,1011.32
2022-08-25T03:15:25.484Z,1011.34
2022-08-25T03:16:27.712Z,1011.28
2022-08-25T03:17:25.437Z,1011.31
2022-08-25T03:18:25.431Z,1011.28
2022-08-25T03:19:25.410Z,1011.28
2022-08-25T03:20:25.402Z,1011.29
2022-08-25T03:21:25.416Z,1011.29
2022-08-25T03:22:25.391Z,1011.27
2022-08-25T03:23:25.372Z,1011.27
2022-08-25T03:24:25.359Z,1011.25
2022-08-25T03:25:25.343Z,1011.23
2022-08-25T03:26:25.345Z,1011.22
2022-08-25T03:27:25.348Z,1011.22
2022-08-25T03:28:29.926Z,1011.18
2022-08-25T03:29:25.304Z,1011.21
2022-08-25T03:30:25.300Z,1011.22
2022-08-25T03:31:25.313Z,1011.21
2022-08-25T03:32:25.304Z,1011.18
2022-08-25T03:33:25.253Z,1011.19
2022-08-25T03:34:25.253Z,1011.24
2022-08-25T03:35:25.234Z,1011.18
2022-08-25T03:36:25.232Z,1011.16
2022-08-25T03:37:25.212Z,1011.16
2022-08-25T03:38:25.236Z,1011.17
2022-08-25T03:39:25.191Z,1011.13
2022-08-25T03:40:25.299Z,1011.13
2022-08-25T03:41:27.757Z,1011.12
2022-08-25T03:42:25.175Z,1011.16
2022-08-25T03:43:25.166Z,1011.14
2022-08-25T03:44:25.133Z,1011.13
2022-08-25T03:45:25.287Z,1011.10
2022-08-25T03:46:25.135Z,1011.07
2022-08-25T03:47:25.105Z,1011.10
2022-08-25T03:48:25.145Z,1011.06
2022-08-25T03:49:25.086Z,1011.08
2022-08-25T03:50:25.067Z,1011.05
2022-08-25T03:51:25.062Z,1011.01
2022-08-25T03:52:25.058Z,1011.02
2022-08-25T03:53:25.035Z,1010.99
2022-08-25T03:54:25.049Z,1010.98
2022-08-25T03:55:25.037Z,1010.91
2022-08-25T03:56:25.006Z,1010.93
2022-08-25T03:57:24.996Z,1010.89
2022-08-25T03:58:24.984Z,1010.90
2022-08-25T03:59:24.996Z,1010.89
2022-08-25T04:00:24.985Z,1010.89
2022-08-25T04:01:24.984Z,1010.86
2022-08-25T04:02:24.967Z,1010.86
2022-08-25T04:03:24.931Z,1010.82
2022-08-25T04:04:24.918Z,1010.84
2022-08-25T04:05:24.928Z,1010.84
2022-08-25T04:06:24.900Z,1010.87
2022-08-25T04:07:24.881Z,1010.81
2022-08-25T04:08:24.869Z,1010.84
2022-08-25T04:09:24.859Z,1010.85
2022-08-25T04:10:24.869Z,1010.89
2022-08-25T04:11:24.839Z,1010.87
2022-08-25T04:12:24.838Z,1010.89
2022-08-25T04:13:24.870Z,1010.88
2022-08-25T04:14:24.802Z,1010.85
2022-08-25T04:15:24.831Z,1010.88
2022-08-25T04:16:24.810Z,1010.90
2022-08-25T04:17:24.772Z,1010.83
2022-08-25T04:18:24.761Z,1010.84
2022-08-25T04:19:24.761Z,1010.85
2022-08-25T04:20:24.733Z,1010.86
2022-08-25T04:21:24.752Z,1010.90
2022-08-25T04:22:24.722Z,1010.88
2022-08-25T04:23:24.711Z,1010.91
2022-08-25T04:24:24.696Z,1010.94
2022-08-25T04:25:24.685Z,1010.91
2022-08-25T04:26:24.693Z,1010.93
2022-08-25T04:27:24.663Z,1010.94
2022-08-25T04:28:24.644Z,1010.91
2022-08-25T04:29:24.647Z,1010.94
2022-08-25T04:30:24.625Z,1010.89
2022-08-25T04:31:24.706Z,1010.90
2022-08-25T04:32:24.616Z,1010.88
2022-08-25T04:33:24.594Z,1010.88
2022-08-25T04:34:30.146Z,1010.87
2022-08-25T04:35:25.566Z,1010.87
2022-08-25T04:36:24.577Z,1010.88
2022-08-25T04:37:24.553Z,1010.85
2022-08-25T04:38:24.535Z,1010.82
2022-08-25T04:39:24.525Z,1010.86
2022-08-25T04:40:28.920Z,1010.79
2022-08-25T04:41:24.534Z,1010.83
2022-08-25T04:42:24.523Z,1010.82
2022-08-25T04:43:24.488Z,1010.81
2022-08-25T04:44:24.466Z,1010.81
2022-08-25T04:45:24.492Z,1010.79
2022-08-25T04:46:24.494Z,1010.79
2022-08-25T04:47:24.457Z,1010.77
2022-08-25T04:48:24.427Z,1010.78
2022-08-25T04:49:24.419Z,1010.78
2022-08-25T04:50:24.399Z,1010.77
2022-08-25T04:51:24.400Z,1010.75
2022-08-25T04:52:24.390Z,1010.75
2022-08-25T04:53:24.390Z,1010.75
2022-08-25T04:54:24.360Z,1010.77
2022-08-25T04:55:24.350Z,1010.77
2022-08-25T04:56:24.339Z,1010.75
2022-08-25T04:57:24.331Z,1010.76
2022-08-25T04:58:24.332Z,1010.78
2022-08-25T04:59:24.308Z,1010.73
2022-08-25T05:00:25.294Z,1010.75
2022-08-25T05:01:24.396Z,1010.74
2022-08-25T05:02:24.272Z,1010.72
2022-08-25T05:03:24.288Z,1010.72
2022-08-25T05:04:28.336Z,1010.71
2022-08-25T05:05:24.241Z,1010.67
2022-08-25T05:06:24.223Z,1010.68
2022-08-25T05:07:24.220Z,1010.68
2022-08-25T05:08:24.203Z,1010.70
2022-08-25T05:09:25.083Z,1010.71
2022-08-25T05:10:24.195Z,1010.70
2022-08-25T05:11:24.174Z,1010.68
2022-08-25T05:12:24.163Z,1010.68
2022-08-25T05:13:24.180Z,1010.70
2022-08-25T05:14:26.264Z,1010.69
2022-08-25T05:15:24.128Z,1010.71
2022-08-25T05:16:24.183Z,1010.69
2022-08-25T05:17:24.106Z,1010.73
2022-08-25T05:18:24.095Z,1010.68
2022-08-25T05:19:24.244Z,1010.71
2022-08-25T05:20:24.064Z,1010.65
2022-08-25T05:21:24.055Z,1010.65
2022-08-25T05:22:24.066Z,1010.66
2022-08-25T05:23:24.035Z,1010.71
2022-08-25T05:24:24.027Z,1010.72
2022-08-25T05:25:24.035Z,1010.80
2022-08-25T05:26:23.997Z,1010.78
2022-08-25T05:27:24.001Z,1010.79
2022-08-25T05:28:23.978Z,1010.80
2022-08-25T05:29:23.968Z,1010.82
2022-08-25T05:30:23.976Z,1010.82
2022-08-25T05:31:24.013Z,1010.85
2022-08-25T05:32:23.947Z,1010.87
2022-08-25T05:33:23.928Z,1010.83
2022-08-25T05:34:23.908Z,1010.82
2022-08-25T05:35:23.927Z,1010.86
2022-08-25T05:36:23.887Z,1010.84
2022-08-25T05:37:23.887Z,1010.84
2022-08-25T05:38:23.923Z,1010.82
2022-08-25T05:39:23.928Z,1010.83
2022-08-25T05:40:23.923Z,1010.81
2022-08-25T05:41:23.838Z,1010.86
2022-08-25T05:42:23.850Z,1010.81
2022-08-25T05:43:23.869Z,1010.79
2022-08-25T05:44:23.802Z,1010.76
2022-08-25T05:45:23.858Z,1010.74
2022-08-25T05:46:23.780Z,1010.76
2022-08-25T05:47:23.790Z,1010.77
2022-08-25T05:48:23.761Z,1010.76
2022-08-25T05:49:23.751Z,1010.77
2022-08-25T05:50:23.742Z,1010.80
2022-08-25T05:51:23.723Z,1010.75
2022-08-25T05:52:23.750Z,1010.77
2022-08-25T05:53:23.703Z,1010.78
2022-08-25T05:54:23.703Z,1010.77
2022-08-25T05:55:23.684Z,1010.79
2022-08-25T05:56:23.696Z,1010.78
2022-08-25T05:57:23.661Z,1010.79
2022-08-25T05:58:23.672Z,1010.71
2022-08-25T05:59:23.641Z,1010.72
2022-08-25T06:00:23.624Z,1010.71
2022-08-25T06:01:23.716Z,1010.72
2022-08-25T06:02:23.657Z,1010.67
2022-08-25T06:03:23.648Z,1010.62
2022-08-25T06:04:23.575Z,1010.66
2022-08-25T06:05:23.565Z,1010.64
2022-08-25T06:06:23.554Z,1010.62
2022-08-25T06:07:23.546Z,1010.59
2022-08-25T06:08:23.555Z,1010.63
2022-08-25T06:09:23.525Z,1010.59
2022-08-25T06:10:23.516Z,1010.61
2022-08-25T06:11:23.506Z,1010.59
2022-08-25T06:12:23.497Z,1010.62
2022-08-25T06:13:28.763Z,1010.63
2022-08-25T06:14:24.468Z,1010.64
2022-08-25T06:15:23.490Z,1010.62
2022-08-25T06:16:23.524Z,1010.62
2022-08-25T06:17:23.436Z,1010.66
2022-08-25T06:18:23.429Z,1010.65
2022-08-25T06:19:23.730Z,1010.64
2022-08-25T06:20:25.824Z,1010.64
2022-08-25T06:21:23.409Z,1010.60
2022-08-25T06:22:23.426Z,1010.60
2022-08-25T06:23:23.368Z,1010.66
2022-08-25T06:24:23.369Z,1010.66
2022-08-25T06:25:23.369Z,1010.63
2022-08-25T06:26:23.331Z,1010.62
2022-08-25T06:27:23.328Z,1010.60
2022-08-25T06:28:23.310Z,1010.62
2022-08-25T06:29:23.302Z,1010.57
2022-08-25T06:30:24.588Z,1010.56
2022-08-25T06:31:24.335Z,1010.58
2022-08-25T06:32:23.271Z,1010.57
2022-08-25T06:33:23.261Z,1010.61
2022-08-25T06:34:23.813Z,1010.60
2022-08-25T06:35:23.248Z,1010.57
2022-08-25T06:36:23.243Z,1010.57
2022-08-25T06:37:25.156Z,1010.55
2022-08-25T06:38:23.203Z,1010.55
2022-08-25T06:39:23.204Z,1010.54
2022-08-25T06:40:23.215Z,1010.54
2022-08-25T06:41:23.190Z,1010.56
2022-08-25T06:42:23.185Z,1010.53
2022-08-25T06:43:23.144Z,1010.55
2022-08-25T06:44:23.134Z,1010.52
2022-08-25T06:45:23.126Z,1010.54
2022-08-25T06:46:23.153Z,1010.53
2022-08-25T06:47:24.223Z,1010.53
2022-08-25T06:48:23.086Z,1010.54
2022-08-25T06:49:23.092Z,1010.53
2022-08-25T06:50:23.066Z,1010.58
2022-08-25T06:51:23.065Z,1010.58
2022-08-25T06:52:23.075Z,1010.63
2022-08-25T06:53:24.035Z,1010.64
2022-08-25T06:54:23.028Z,1010.65
2022-08-25T06:55:23.018Z,1010.69
2022-08-25T06:56:23.001Z,1010.67
2022-08-25T06:57:23.008Z,1010.69
2022-08-25T06:58:23.007Z,1010.67
2022-08-25T06:59:22.968Z,1010.67
2022-08-25T07:00:22.958Z,1010.69
2022-08-25T07:01:25.921Z,1010.70
2022-08-25T07:02:23.007Z,1010.69
2022-08-25T07:04:22.939Z,1010.65
2022-08-25T07:05:33.654Z,1010.65
2022-08-25T07:06:23.889Z,1010.63
2022-08-25T07:07:22.888Z,1010.65
2022-08-25T07:08:22.881Z,1010.65
2022-08-25T07:09:22.888Z,1010.66
2022-08-25T07:10:22.848Z,1010.64
2022-08-25T07:11:22.850Z,1010.67
2022-08-25T07:12:22.832Z,1010.65
2022-08-25T07:13:22.822Z,1010.60
2022-08-25T07:14:22.829Z,1010.67
2022-08-25T07:15:22.793Z,1010.66
2022-08-25T07:16:22.820Z,1010.68
2022-08-25T07:17:22.775Z,1010.66
2022-08-25T07:18:22.764Z,1010.69
2022-08-25T07:19:22.774Z,1010.66
2022-08-25T07:21:25.013Z,1010.64
2022-08-25T07:22:23.723Z,1010.61
2022-08-25T07:23:22.711Z,1010.67
2022-08-25T07:24:22.713Z,1010.67
2022-08-25T07:25:22.707Z,1010.65
2022-08-25T07:26:38.995Z,1010.65
2022-08-25T07:27:23.664Z,1010.65
2022-08-25T07:28:22.656Z,1010.68
2022-08-25T07:29:31.827Z,1010.68
2022-08-25T07:30:23.727Z,1010.72
2022-08-25T07:31:22.675Z,1010.70
2022-08-25T07:32:23.618Z,1010.73
2022-08-25T07:33:22.596Z,1010.71
2022-08-25T07:34:22.617Z,1010.73
2022-08-25T07:35:23.984Z,1010.80
2022-08-25T07:36:22.566Z,1010.74
2022-08-25T07:38:23.548Z,1010.76
2022-08-25T07:39:22.541Z,1010.76
2022-08-25T07:40:22.747Z,1010.81
2022-08-25T07:41:22.506Z,1010.80
2022-08-25T07:42:22.508Z,1010.79
2022-08-25T07:43:22.480Z,1010.77
2022-08-25T07:44:22.471Z,1010.76
2022-08-25T07:45:22.490Z,1010.77
2022-08-25T07:46:22.482Z,1010.77
2022-08-25T07:47:23.095Z,1010.79
2022-08-25T07:48:22.440Z,1010.75
2022-08-25T07:49:23.127Z,1010.75
2022-08-25T07:50:22.523Z,1010.77
2022-08-25T07:51:22.460Z,1010.78
2022-08-25T07:52:22.394Z,1010.82
2022-08-25T07:53:22.687Z,1010.82
2022-08-25T07:54:22.369Z,1010.81
2022-08-25T07:55:23.357Z,1010.81
2022-08-25T07:56:22.341Z,1010.85
2022-08-25T07:57:22.355Z,1010.82
2022-08-25T07:58:22.329Z,1010.83
2022-08-25T07:59:22.310Z,1010.81
2022-08-25T08:00:22.303Z,1010.77
2022-08-25T08:01:22.348Z,1010.83
2022-08-25T08:02:22.330Z,1010.80
2022-08-25T08:03:42.262Z,1010.74
2022-08-25T08:04:23.255Z,1010.78
2022-08-25T08:05:24.041Z,1010.78
2022-08-25T08:06:22.232Z,1010.74
2022-08-25T08:07:22.955Z,1010.78
2022-08-25T08:08:22.215Z,1010.71
2022-08-25T08:09:22.198Z,1010.74
2022-08-25T08:11:23.174Z,1010.67
2022-08-25T08:12:22.206Z,1010.65
2022-08-25T08:13:22.149Z,1010.68
2022-08-25T08:14:22.139Z,1010.64
2022-08-25T08:15:22.160Z,1010.62
2022-08-25T08:16:22.168Z,1010.64
2022-08-25T08:17:22.127Z,1010.61
2022-08-25T08:18:22.129Z,1010.64
2022-08-25T08:19:23.134Z,1010.64
2022-08-25T08:20:23.547Z,1010.57
2022-08-25T08:21:22.067Z,1010.63
2022-08-25T08:22:22.159Z,1010.61
2022-08-25T08:23:22.041Z,1010.61
2022-08-25T08:24:40.886Z,1010.59
2022-08-25T08:25:26.436Z,1010.60
2022-08-25T08:26:22.469Z,1010.56
2022-08-25T08:27:22.999Z,1010.50
2022-08-25T08:28:22.043Z,1010.49
2022-08-25T08:29:21.978Z,1010.48
2022-08-25T08:30:21.963Z,1010.44
2022-08-25T08:31:21.983Z,1010.46
2022-08-25T08:32:22.281Z,1010.51
2022-08-25T08:33:21.932Z,1010.49
2022-08-25T08:34:24.964Z,1010.50
2022-08-25T08:35:21.902Z,1010.50
2022-08-25T08:36:21.938Z,1010.46
2022-08-25T08:37:22.970Z,1010.47
2022-08-25T08:38:22.242Z,1010.47
2022-08-25T08:39:22.884Z,1010.48
2022-08-25T08:40:21.979Z,1010.47
2022-08-25T08:41:23.182Z,1010.46
2022-08-25T08:42:21.833Z,1010.40
2022-08-25T08:43:21.824Z,1010.38
2022-08-25T08:44:21.835Z,1010.38
2022-08-25T08:45:21.829Z,1010.41
2022-08-25T08:46:21.831Z,1010.39
2022-08-25T08:47:22.473Z,1010.38
2022-08-25T08:48:21.767Z,1010.37
2022-08-25T08:49:21.776Z,1010.36
2022-08-25T08:50:24.962Z,1010.37
2022-08-25T08:51:22.968Z,1010.38
2022-08-25T08:52:21.726Z,1010.36
2022-08-25T08:53:21.718Z,1010.36
2022-08-25T08:54:23.161Z,1010.37
2022-08-25T08:55:21.708Z,1010.32
2022-08-25T08:56:21.678Z,1010.33
2022-08-25T08:57:21.660Z,1010.36
2022-08-25T08:58:26.538Z,1010.27
2022-08-25T08:59:29.944Z,1010.29
2022-08-25T09:00:22.659Z,1010.29
2022-08-25T09:01:21.670Z,1010.34
2022-08-25T09:02:30.719Z,1010.28
2022-08-25T09:03:22.667Z,1010.30
2022-08-25T09:04:29.368Z,1010.29
2022-08-25T09:05:21.599Z,1010.33
2022-08-25T09:06:21.575Z,1010.21
2022-08-25T09:07:21.557Z,1010.23
2022-08-25T09:08:21.576Z,1010.19
2022-08-25T09:09:21.547Z,1010.12
2022-08-25T09:10:21.520Z,1010.11
2022-08-25T09:11:21.540Z,1010.07
2022-08-25T09:12:21.508Z,1010.07
2022-08-25T09:13:21.496Z,1010.06
2022-08-25T09:14:21.483Z,1010.09
2022-08-25T09:15:21.492Z,1010.12
2022-08-25T09:16:31.951Z,1010.08
2022-08-25T09:17:22.483Z,1010.09
2022-08-25T09:18:21.440Z,1010.15
2022-08-25T09:19:23.541Z,1010.11
2022-08-25T09:20:21.450Z,1010.14
2022-08-25T09:21:21.407Z,1010.14
2022-08-25T09:22:35.117Z,1010.16
2022-08-25T09:23:22.405Z,1010.13
2022-08-25T09:24:21.374Z,1010.14
2022-08-25T09:25:39.627Z,1010.12
2022-08-25T09:26:22.355Z,1010.15
2022-08-25T09:27:21.337Z,1010.20
2022-08-25T09:28:21.376Z,1010.10
2022-08-25T09:29:21.315Z,1010.06
2022-08-25T09:30:21.307Z,1010.10
2022-08-25T09:31:21.346Z,1010.09
2022-08-25T09:32:24.000Z,1010.03
2022-08-25T09:33:21.478Z,1010.06
2022-08-25T09:34:21.287Z,1010.07
2022-08-25T09:35:21.259Z,1010.05
2022-08-25T09:36:21.245Z,1009.99
2022-08-25T09:37:21.227Z,1010.00
2022-08-25T09:38:21.249Z,1010.01
2022-08-25T09:39:21.229Z,1009.97
2022-08-25T09:40:21.245Z,1009.94
2022-08-25T09:41:21.191Z,1009.90
2022-08-25T09:42:23.821Z,1009.95
2022-08-25T09:43:21.189Z,1009.94
2022-08-25T09:44:21.161Z,1009.88
2022-08-25T09:45:21.154Z,1009.90
2022-08-25T09:46:21.213Z,1009.88
2022-08-25T09:47:21.121Z,1009.86
2022-08-25T09:48:21.117Z,1009.87
2022-08-25T09:49:21.134Z,1009.85
2022-08-25T09:50:21.092Z,1009.75
2022-08-25T09:51:21.084Z,1009.81
2022-08-25T09:52:21.080Z,1009.76
2022-08-25T09:53:21.705Z,1009.75
2022-08-25T09:54:21.074Z,1009.75
2022-08-25T09:55:21.042Z,1009.68
2022-08-25T09:56:21.036Z,1009.70
2022-08-25T09:57:21.026Z,1009.68
2022-08-25T09:58:22.130Z,1009.71
2022-08-25T09:59:21.017Z,1009.70
2022-08-25T10:00:22.009Z,1009.74
2022-08-25T10:01:22.436Z,1009.65
2022-08-25T10:02:20.966Z,1009.72
2022-08-25T10:03:22.828Z,1009.62
2022-08-25T10:04:20.982Z,1009.63
2022-08-25T10:05:20.973Z,1009.58
2022-08-25T10:06:20.924Z,1009.58
2022-08-25T10:07:20.907Z,1009.52
2022-08-25T10:08:21.312Z,1009.50
2022-08-25T10:09:20.888Z,1009.51
2022-08-25T10:10:20.906Z,1009.49
2022-08-25T10:11:20.869Z,1009.51
2022-08-25T10:12:21.117Z,1009.45
2022-08-25T10:13:22.671Z,1009.48
2022-08-25T10:14:20.831Z,1009.50
2022-08-25T10:15:30.414Z,1009.44
2022-08-25T10:16:24.546Z,1009.46
2022-08-25T10:17:20.812Z,1009.44
2022-08-25T10:18:20.790Z,1009.40
2022-08-25T10:19:20.772Z,1009.44
2022-08-25T10:20:20.770Z,1009.37
2022-08-25T10:21:20.753Z,1009.38
2022-08-25T10:22:20.768Z,1009.32
2022-08-25T10:23:20.733Z,1009.35
2022-08-25T10:24:20.724Z,1009.31
2022-08-25T10:25:20.714Z,1009.28
2022-08-25T10:26:20.716Z,1009.29
2022-08-25T10:27:20.713Z,1009.27
2022-08-25T10:28:20.681Z,1009.26
2022-08-25T10:29:20.684Z,1009.27
2022-08-25T10:30:20.663Z,1009.30
2022-08-25T10:31:20.680Z,1009.24
2022-08-25T10:32:20.666Z,1009.18
2022-08-25T10:33:20.629Z,1009.22
2022-08-25T10:34:20.619Z,1009.17
2022-08-25T10:35:20.608Z,1009.13
2022-08-25T10:36:21.374Z,1009.18
2022-08-25T10:37:20.608Z,1009.09
2022-08-25T10:38:21.643Z,1009.14
2022-08-25T10:39:34.101Z,1009.22
2022-08-25T10:40:21.615Z,1009.12
2022-08-25T10:41:20.541Z,1009.12
2022-08-25T10:42:20.538Z,1009.09
2022-08-25T10:43:23.720Z,1009.10
2022-08-25T10:44:20.519Z,1009.10
2022-08-25T10:45:21.831Z,1009.05
2022-08-25T10:46:20.568Z,1009.07
2022-08-25T10:47:20.482Z,1009.04
2022-08-25T10:48:20.476Z,1008.99
2022-08-25T10:49:20.483Z,1009.00
2022-08-25T10:50:20.455Z,1009.02
2022-08-25T10:51:25.296Z,1008.96
2022-08-25T10:52:21.432Z,1008.95
2022-08-25T10:53:20.415Z,1008.94
2022-08-25T10:54:20.445Z,1008.82
2022-08-25T10:55:20.416Z,1008.94
2022-08-25T10:56:20.400Z,1008.91
2022-08-25T10:57:20.468Z,1008.95
2022-08-25T10:58:20.367Z,1008.89
2022-08-25T10:59:20.356Z,1008.86
2022-08-25T11:00:20.376Z,1008.87
2022-08-25T11:01:20.384Z,1008.87
2022-08-25T11:02:21.328Z,1008.88
2022-08-25T11:03:20.319Z,1008.80
2022-08-25T11:04:20.310Z,1008.81
2022-08-25T11:05:24.520Z,1008.79
2022-08-25T11:06:20.291Z,1008.82
2022-08-25T11:07:20.281Z,1008.73
2022-08-25T11:08:20.286Z,1008.64
2022-08-25T11:09:20.265Z,1008.67
2022-08-25T11:10:20.251Z,1008.68
2022-08-25T11:11:20.271Z,1008.73
2022-08-25T11:12:20.234Z,1008.80
2022-08-25T11:13:20.215Z,1008.72
2022-08-25T11:14:20.212Z,1008.69
2022-08-25T11:15:20.263Z,1008.70
2022-08-25T11:16:20.200Z,1008.67
2022-08-25T11:17:20.242Z,1008.71
2022-08-25T11:18:20.173Z,1008.65
2022-08-25T11:19:20.159Z,1008.67
2022-08-25T11:20:26.743Z,1008.63
2022-08-25T11:21:22.181Z,1008.60
2022-08-25T11:22:20.147Z,1008.58
2022-08-25T11:23:20.136Z,1008.52
2022-08-25T11:24:20.117Z,1008.54
2022-08-25T11:25:20.155Z,1008.52
2022-08-25T11:26:20.159Z,1008.54
2022-08-25T11:27:21.662Z,1008.51
2022-08-25T11:28:20.085Z,1008.50
2022-08-25T11:29:20.092Z,1008.50
2022-08-25T11:30:20.067Z,1008.49
2022-08-25T11:31:20.090Z,1008.45
2022-08-25T11:32:20.071Z,1008.42
2022-08-25T11:33:20.056Z,1008.40
2022-08-25T11:34:20.018Z,1008.43
2022-08-25T11:35:20.010Z,1008.42
2022-08-25T11:36:19.999Z,1008.37
2022-08-25T11:37:20.012Z,1008.41
2022-08-25T11:38:20.001Z,1008.37
2022-08-25T11:39:19.974Z,1008.35
2022-08-25T11:40:20.019Z,1008.40
2022-08-25T11:41:19.961Z,1008.39
2022-08-25T11:42:19.942Z,1008.38
2022-08-25T11:43:19.955Z,1008.39
2022-08-25T11:44:19.919Z,1008.40
2022-08-25T11:45:19.913Z,1008.42
2022-08-25T11:46:19.975Z,1008.43
2022-08-25T11:47:21.411Z,1008.41
2022-08-25T11:48:19.908Z,1008.35
2022-08-25T11:49:19.876Z,1008.33
2022-08-25T11:50:19.887Z,1008.34
2022-08-25T11:51:19.882Z,1008.36
2022-08-25T11:52:19.865Z,1008.31
2022-08-25T11:53:25.132Z,1008.29
2022-08-25T11:54:20.932Z,1008.22
2022-08-25T11:55:22.784Z,1008.26
2022-08-25T11:56:19.806Z,1008.25
2022-08-25T11:57:19.936Z,1008.30
2022-08-25T11:58:19.946Z,1008.32
2022-08-25T11:59:19.784Z,1008.35
2022-08-25T12:00:19.766Z,1008.35
2022-08-25T12:01:19.768Z,1008.37
2022-08-25T12:02:19.749Z,1008.35
2022-08-25T12:03:19.768Z,1008.30
2022-08-25T12:04:19.796Z,1008.30
2022-08-25T12:05:19.978Z,1008.31
2022-08-25T12:06:19.711Z,1008.29
2022-08-25T12:07:19.711Z,1008.33
2022-08-25T12:08:19.719Z,1008.26
2022-08-25T12:09:19.693Z,1008.28